KBUR

Bob Hope Airport

Burbank, California, USA
METAR KBUR 242353Z 14008KT 10SM SCT034 18/13 A3004 RMK AO2 SLP162 T01780128 10183 20156 58009
Observed Flight Rules
May-24 @ 23:53 UTC (an hour ago) Visual Flight Rules
Wind Visibility Clouds
140° at 8 knots 10 miles
  • Scattered at 3,400' AGL
Temperatures Readings
Current 18°C / 64°F
Dewpoint 13°C / 55°F
Humidity 73%
Altimeter 30.04" Hg
Pressure 1016.2 hPa
Elevation 217
METAR KBUR 242353Z 14008KT 10SM SCT034 18/13 A3004 RMK AO2 SLP162 T01780128 10183 20156 58009
Observed Flight Rules
May-24 @ 23:53 UTC
(an hour ago)
VFR
Wind Visibility
140° at 8 knots 10 miles
Clouds
  • Scattered at 3,400' AGL
Temperature Dewpoint
18°C / 64°F 13°C / 55°F
Humidity Altimeter Pressure
73% 30.04" Hg 1016.2 hPa